createdAt,value
2022-08-31T00:00:37.264Z,1.40
2022-08-31T00:03:24.280Z,1.77
2022-08-31T00:05:59.692Z,1.40
2022-08-31T00:08:27.319Z,1.30
2022-08-31T00:10:55.484Z,1.50
2022-08-31T00:13:23.626Z,1.30
2022-08-31T00:15:51.438Z,1.37
2022-08-31T00:18:19.085Z,1.70
2022-08-31T00:20:47.250Z,1.43
2022-08-31T00:23:15.984Z,2.27
2022-08-31T00:25:46.224Z,1.60
2022-08-31T00:28:14.923Z,1.47
2022-08-31T00:30:43.183Z,1.40
2022-08-31T00:33:11.631Z,1.50
2022-08-31T00:35:41.666Z,1.50
2022-08-31T00:38:09.822Z,1.43
2022-08-31T00:40:38.058Z,1.90
2022-08-31T00:43:32.370Z,2.00
2022-08-31T00:45:59.299Z,1.10
2022-08-31T00:48:26.183Z,1.60
2022-08-31T00:50:53.176Z,1.47
2022-08-31T00:53:20.165Z,1.50
2022-08-31T00:55:47.430Z,1.23
2022-08-31T00:58:14.408Z,1.53
2022-08-31T01:00:43.343Z,1.70
2022-08-31T01:03:10.920Z,1.53
2022-08-31T01:05:39.598Z,1.80
2022-08-31T01:08:07.265Z,1.80
2022-08-31T01:10:38.667Z,1.40
2022-08-31T01:13:06.342Z,1.63
2022-08-31T01:15:34.300Z,1.40
2022-08-31T01:18:03.793Z,1.47
2022-08-31T01:20:49.428Z,1.40
2022-08-31T01:23:26.645Z,1.30
2022-08-31T01:25:57.164Z,1.70
2022-08-31T01:28:24.362Z,1.67
2022-08-31T01:31:01.393Z,1.40
2022-08-31T01:33:29.581Z,1.40
2022-08-31T01:36:08.022Z,1.27
2022-08-31T01:38:36.243Z,1.40
2022-08-31T01:41:04.442Z,1.70
2022-08-31T01:43:34.087Z,1.70
2022-08-31T01:46:02.991Z,1.90
2022-08-31T01:48:32.799Z,1.63
2022-08-31T01:51:01.686Z,1.43
2022-08-31T01:53:29.084Z,1.80
2022-08-31T01:55:55.926Z,1.20
2022-08-31T01:58:22.779Z,1.57
2022-08-31T02:00:49.964Z,1.50
2022-08-31T02:03:17.040Z,1.47
2022-08-31T02:05:44.053Z,1.50
2022-08-31T02:08:11.663Z,1.40
2022-08-31T02:10:38.888Z,1.30
2022-08-31T02:13:06.074Z,1.30
2022-08-31T02:15:33.570Z,1.47
2022-08-31T02:18:00.606Z,2.10
2022-08-31T02:20:29.610Z,1.53
2022-08-31T02:22:56.476Z,2.00
2022-08-31T02:25:23.329Z,1.33
2022-08-31T02:27:50.175Z,1.23
2022-08-31T02:30:19.395Z,2.10
2022-08-31T02:32:46.425Z,1.60
2022-08-31T02:35:13.406Z,1.60
2022-08-31T02:37:40.518Z,1.80
2022-08-31T02:40:12.311Z,1.70
2022-08-31T02:42:52.898Z,1.57
2022-08-31T02:45:21.300Z,1.77
2022-08-31T02:47:48.138Z,1.60
2022-08-31T02:50:14.996Z,1.73
2022-08-31T02:52:41.853Z,1.73
2022-08-31T02:55:08.822Z,1.90
2022-08-31T02:57:35.654Z,2.10
2022-08-31T03:00:02.794Z,1.57
2022-08-31T03:02:31.892Z,1.57
2022-08-31T03:05:01.392Z,1.77
2022-08-31T03:07:28.372Z,1.47
2022-08-31T03:09:56.028Z,1.70
2022-08-31T03:12:22.846Z,1.60
2022-08-31T03:14:49.653Z,1.43
2022-08-31T03:17:16.557Z,1.40
2022-08-31T03:19:43.395Z,1.70
2022-08-31T03:22:10.730Z,1.20
2022-08-31T03:24:37.604Z,1.40
2022-08-31T03:27:04.633Z,1.40
2022-08-31T03:29:31.466Z,1.60
2022-08-31T03:31:58.336Z,1.93
2022-08-31T03:34:25.162Z,1.30
2022-08-31T03:36:51.988Z,1.60
2022-08-31T03:39:18.925Z,1.20
2022-08-31T03:41:45.805Z,2.03
2022-08-31T03:44:12.976Z,1.60
2022-08-31T03:46:45.432Z,1.60
2022-08-31T03:49:12.499Z,1.30
2022-08-31T03:51:39.321Z,1.50
2022-08-31T03:54:06.129Z,1.10
2022-08-31T03:56:42.064Z,1.27
2022-08-31T03:59:08.928Z,1.20
2022-08-31T04:01:37.142Z,1.10
2022-08-31T04:04:04.333Z,1.27
2022-08-31T04:06:31.964Z,1.67
2022-08-31T04:08:58.886Z,1.40
2022-08-31T04:11:44.700Z,1.37
2022-08-31T04:14:15.795Z,1.40
2022-08-31T04:16:43.894Z,1.20
2022-08-31T04:19:14.507Z,1.03
2022-08-31T04:21:44.260Z,1.23
2022-08-31T04:24:12.224Z,1.20
2022-08-31T04:26:43.329Z,1.00
2022-08-31T04:29:13.477Z,1.10
2022-08-31T04:31:40.866Z,1.37
2022-08-31T04:34:07.725Z,1.30
2022-08-31T04:36:34.888Z,1.40
2022-08-31T04:39:03.674Z,1.17
2022-08-31T04:41:32.945Z,0.90
2022-08-31T04:44:01.449Z,1.20
2022-08-31T04:46:29.097Z,1.13
2022-08-31T04:48:57.193Z,1.30
2022-08-31T04:51:32.043Z,1.10
2022-08-31T04:53:58.932Z,1.10
2022-08-31T04:56:28.367Z,1.10
2022-08-31T04:58:58.996Z,1.40
2022-08-31T05:01:28.629Z,1.23
2022-08-31T05:04:10.904Z,1.00
2022-08-31T05:06:40.588Z,1.17
2022-08-31T05:09:10.742Z,1.20
2022-08-31T05:11:38.364Z,1.70
2022-08-31T05:14:06.944Z,1.07
2022-08-31T05:16:34.713Z,1.20
2022-08-31T05:19:01.821Z,1.10
2022-08-31T05:21:34.757Z,1.27
2022-08-31T05:24:05.831Z,1.10
2022-08-31T05:26:42.156Z,2.00
2022-08-31T05:29:10.883Z,1.43
2022-08-31T05:31:38.968Z,1.20
2022-08-31T05:34:06.414Z,1.30
2022-08-31T05:36:34.572Z,1.10
2022-08-31T05:39:02.110Z,1.30
2022-08-31T05:41:30.505Z,1.20
2022-08-31T05:43:57.385Z,1.13
2022-08-31T05:46:24.331Z,1.40
2022-08-31T05:48:51.239Z,1.10
2022-08-31T05:51:19.121Z,1.20
2022-08-31T05:53:46.719Z,1.07
2022-08-31T05:56:18.108Z,1.10
2022-08-31T05:58:47.397Z,1.03
2022-08-31T06:01:33.069Z,1.23
2022-08-31T06:04:01.195Z,2.53
2022-08-31T06:06:28.654Z,1.40
2022-08-31T06:08:56.148Z,1.30
2022-08-31T06:11:26.958Z,1.27
2022-08-31T06:13:56.426Z,1.00
2022-08-31T06:16:23.971Z,1.10
2022-08-31T06:18:53.549Z,1.10
2022-08-31T06:21:30.970Z,1.57
2022-08-31T06:23:59.430Z,1.57
2022-08-31T06:26:29.087Z,1.30
2022-08-31T06:28:59.548Z,1.27
2022-08-31T06:31:29.549Z,1.00
2022-08-31T06:33:56.914Z,1.17
2022-08-31T06:36:26.104Z,1.17
2022-08-31T06:38:56.097Z,1.27
2022-08-31T06:41:27.540Z,1.80
2022-08-31T06:43:54.950Z,1.17
2022-08-31T06:46:24.003Z,1.17
2022-08-31T06:48:57.474Z,1.10
2022-08-31T06:51:25.776Z,0.80
2022-08-31T06:53:56.211Z,1.00
2022-08-31T06:56:25.572Z,1.10
2022-08-31T06:58:53.597Z,1.30
2022-08-31T07:01:34.835Z,1.00
2022-08-31T07:04:10.638Z,1.20
2022-08-31T07:06:41.161Z,0.80
2022-08-31T07:09:10.736Z,0.80
2022-08-31T07:11:44.529Z,0.73
2022-08-31T07:14:14.772Z,0.77
2022-08-31T07:16:43.131Z,1.20
2022-08-31T07:19:11.104Z,1.17
2022-08-31T07:21:47.108Z,1.20
2022-08-31T07:24:18.006Z,1.30
2022-08-31T07:26:50.542Z,0.93
2022-08-31T07:29:21.041Z,0.70
2022-08-31T07:31:49.104Z,0.60
2022-08-31T07:34:19.944Z,0.90
2022-08-31T07:37:06.240Z,1.23
2022-08-31T07:39:53.718Z,0.70
2022-08-31T07:42:33.091Z,0.80
2022-08-31T07:45:01.739Z,0.80
2022-08-31T07:47:29.558Z,1.00
2022-08-31T07:49:59.785Z,0.77
2022-08-31T07:52:33.151Z,0.97
2022-08-31T07:55:06.566Z,0.87
2022-08-31T07:57:49.083Z,0.83
2022-08-31T08:00:23.981Z,0.70
2022-08-31T08:02:53.044Z,0.80
2022-08-31T08:05:27.701Z,0.80
2022-08-31T08:08:07.295Z,0.80
2022-08-31T08:10:40.983Z,0.80
2022-08-31T08:13:08.920Z,0.70
2022-08-31T08:15:38.693Z,1.20
2022-08-31T08:18:07.467Z,1.10
2022-08-31T08:20:37.690Z,0.90
2022-08-31T08:23:15.608Z,0.70
2022-08-31T08:25:46.496Z,0.70
2022-08-31T08:31:31.929Z,0.70
2022-08-31T08:34:02.139Z,0.70
2022-08-31T08:36:43.571Z,0.87
2022-08-31T08:39:20.407Z,0.63
2022-08-31T08:41:49.194Z,0.70
2022-08-31T08:44:18.368Z,0.73
2022-08-31T08:46:51.396Z,0.60
2022-08-31T08:49:18.461Z,0.93
2022-08-31T08:51:47.345Z,0.77
2022-08-31T08:57:34.604Z,0.90
2022-08-31T09:00:09.442Z,0.80
2022-08-31T09:03:03.964Z,0.93
2022-08-31T09:06:15.087Z,0.90
2022-08-31T09:09:11.212Z,0.50
2022-08-31T09:12:19.029Z,0.73
2022-08-31T09:14:52.232Z,0.68
2022-08-31T09:17:46.457Z,0.70
2022-08-31T09:20:15.647Z,0.63
2022-08-31T09:22:47.331Z,0.70
2022-08-31T09:25:39.993Z,0.70
2022-08-31T09:28:11.053Z,0.68
2022-08-31T09:30:43.488Z,0.70
2022-08-31T09:33:33.016Z,0.60
2022-08-31T09:36:22.670Z,0.77
2022-08-31T09:38:50.302Z,0.73
2022-08-31T09:41:44.283Z,0.63
2022-08-31T09:44:31.566Z,0.95
2022-08-31T09:47:52.059Z,0.73
2022-08-31T09:50:47.260Z,0.60
2022-08-31T09:53:51.295Z,0.50
2022-08-31T09:56:20.855Z,0.47
2022-08-31T09:59:01.546Z,0.80
2022-08-31T10:01:45.363Z,0.60
2022-08-31T10:04:23.483Z,0.60
2022-08-31T10:06:55.324Z,0.50
2022-08-31T10:09:36.085Z,0.70
2022-08-31T10:12:11.400Z,0.60
2022-08-31T10:14:50.764Z,0.70
2022-08-31T10:17:26.235Z,0.50
2022-08-31T10:20:19.618Z,1.42
2022-08-31T10:22:50.946Z,0.70
2022-08-31T10:25:38.612Z,0.50
2022-08-31T10:28:13.149Z,0.70
2022-08-31T10:30:59.559Z,0.57
2022-08-31T10:33:55.344Z,0.65
2022-08-31T10:36:31.441Z,0.85
2022-08-31T10:38:58.909Z,0.50
2022-08-31T10:41:35.645Z,0.50
2022-08-31T10:44:24.169Z,0.70
2022-08-31T10:46:58.117Z,0.68
2022-08-31T10:49:26.377Z,0.80
2022-08-31T10:52:29.395Z,0.68
2022-08-31T10:55:37.465Z,0.47
2022-08-31T10:58:18.831Z,0.60
2022-08-31T11:00:49.550Z,0.60
2022-08-31T11:03:37.973Z,0.80
2022-08-31T11:06:07.566Z,0.60
2022-08-31T11:08:58.165Z,0.60
2022-08-31T11:12:05.018Z,0.80
2022-08-31T11:15:06.375Z,0.63
2022-08-31T11:18:06.742Z,0.50
2022-08-31T11:20:57.950Z,0.52
2022-08-31T11:23:48.266Z,0.77
2022-08-31T11:26:39.363Z,0.80
2022-08-31T11:29:41.608Z,0.68
2022-08-31T11:32:23.421Z,0.65
2022-08-31T11:34:54.236Z,0.70
2022-08-31T11:37:46.803Z,0.50
2022-08-31T11:40:42.308Z,0.80
2022-08-31T11:43:36.847Z,0.88
2022-08-31T11:46:40.128Z,0.80
2022-08-31T11:49:07.896Z,0.60
2022-08-31T11:51:46.655Z,0.57
2022-08-31T11:54:27.060Z,0.50
2022-08-31T11:56:57.035Z,0.50
2022-08-31T11:59:35.311Z,0.70
2022-08-31T12:02:20.617Z,0.90
2022-08-31T12:04:53.764Z,0.60
2022-08-31T12:07:30.592Z,0.60
2022-08-31T12:10:16.823Z,0.60
2022-08-31T12:13:18.790Z,0.60
2022-08-31T12:16:10.031Z,0.60
2022-08-31T12:18:48.647Z,0.50
2022-08-31T12:22:14.085Z,0.70
2022-08-31T12:25:17.523Z,0.68
2022-08-31T12:28:12.925Z,0.70
2022-08-31T12:30:52.747Z,0.60
2022-08-31T12:33:23.863Z,0.82
2022-08-31T12:35:58.036Z,0.85
2022-08-31T12:38:30.625Z,0.80
2022-08-31T12:40:58.069Z,0.60
2022-08-31T12:43:28.374Z,0.90
2022-08-31T12:46:16.589Z,0.75
2022-08-31T12:48:43.421Z,0.60
2022-08-31T12:51:51.606Z,0.80
2022-08-31T12:54:56.499Z,0.70
2022-08-31T12:57:47.297Z,0.77
2022-08-31T13:00:20.121Z,0.55
2022-08-31T13:02:51.842Z,0.75
2022-08-31T13:05:34.497Z,0.85
2022-08-31T13:08:01.665Z,0.70
2022-08-31T13:10:37.479Z,0.80
2022-08-31T13:13:08.845Z,0.80
2022-08-31T13:15:39.920Z,0.88
2022-08-31T13:18:24.686Z,1.02
2022-08-31T13:21:04.119Z,0.80
2022-08-31T13:23:38.521Z,0.68
2022-08-31T13:26:23.058Z,0.60
2022-08-31T13:29:09.783Z,0.73
2022-08-31T13:31:49.115Z,0.60
2022-08-31T13:34:42.053Z,0.70
2022-08-31T13:37:22.797Z,0.68
2022-08-31T13:39:49.972Z,0.63
2022-08-31T13:42:56.667Z,0.60
2022-08-31T13:45:33.879Z,0.70
2022-08-31T13:48:19.822Z,0.77
2022-08-31T13:50:58.204Z,0.82
2022-08-31T13:53:46.599Z,0.95
2022-08-31T13:56:44.160Z,0.80
2022-08-31T13:59:26.573Z,0.70
2022-08-31T14:02:22.333Z,0.75
2022-08-31T14:05:00.019Z,0.85
2022-08-31T14:07:32.531Z,0.75
2022-08-31T14:10:04.042Z,0.82
2022-08-31T14:12:46.195Z,0.63
2022-08-31T14:15:17.776Z,0.90
2022-08-31T14:20:53.353Z,0.80
2022-08-31T14:23:28.413Z,0.73
2022-08-31T14:26:06.773Z,1.08
2022-08-31T14:28:40.614Z,0.82
2022-08-31T14:31:23.102Z,0.90
2022-08-31T14:33:55.930Z,1.10
2022-08-31T14:36:24.635Z,0.50
2022-08-31T14:38:54.233Z,0.70
2022-08-31T14:41:29.732Z,0.70
2022-08-31T14:44:06.884Z,1.10
2022-08-31T14:46:36.836Z,1.35
2022-08-31T14:49:05.335Z,0.60
2022-08-31T14:51:34.108Z,0.90
2022-08-31T14:54:01.474Z,0.70
2022-08-31T14:56:33.409Z,0.80
2022-08-31T14:59:04.369Z,1.17
2022-08-31T15:01:35.761Z,0.80
2022-08-31T15:04:23.009Z,0.80
2022-08-31T15:07:09.547Z,0.70
2022-08-31T15:09:42.422Z,0.87
2022-08-31T15:12:12.224Z,1.13
2022-08-31T15:14:44.946Z,0.77
2022-08-31T15:17:18.848Z,0.70
2022-08-31T15:19:48.074Z,0.90
2022-08-31T15:22:16.124Z,0.90
2022-08-31T15:24:45.315Z,0.80
2022-08-31T15:27:15.187Z,1.10
2022-08-31T15:29:45.547Z,0.80
2022-08-31T15:32:18.733Z,0.80
2022-08-31T15:34:53.657Z,0.70
2022-08-31T15:37:21.577Z,0.80
2022-08-31T15:39:49.534Z,0.70
2022-08-31T15:42:20.792Z,0.60
2022-08-31T15:44:56.071Z,0.70
2022-08-31T15:47:48.555Z,0.70
2022-08-31T15:50:20.169Z,0.70
2022-08-31T15:52:50.963Z,0.80
2022-08-31T15:55:26.769Z,1.00
2022-08-31T15:57:55.277Z,0.90
2022-08-31T16:00:27.845Z,0.70
2022-08-31T16:02:57.368Z,0.73
2022-08-31T16:05:28.857Z,1.20
2022-08-31T16:07:57.248Z,0.90
2022-08-31T16:10:24.711Z,0.77
2022-08-31T16:12:52.094Z,0.73
2022-08-31T16:15:22.285Z,0.77
2022-08-31T16:17:51.761Z,0.80
2022-08-31T16:20:22.125Z,1.03
2022-08-31T16:22:52.333Z,0.70
2022-08-31T16:25:20.474Z,0.70
2022-08-31T16:27:47.566Z,0.90
2022-08-31T16:30:15.957Z,0.77
2022-08-31T16:32:42.843Z,0.63
2022-08-31T16:35:10.386Z,0.60
2022-08-31T16:37:37.754Z,0.67
2022-08-31T16:40:05.213Z,0.70
2022-08-31T16:42:32.095Z,0.70
2022-08-31T16:45:02.328Z,0.60
2022-08-31T16:47:29.870Z,0.70
2022-08-31T16:49:58.386Z,0.97
2022-08-31T16:52:28.455Z,0.70
2022-08-31T16:54:57.227Z,0.60
2022-08-31T16:57:27.307Z,0.70
2022-08-31T16:59:59.507Z,0.50
2022-08-31T17:02:27.540Z,0.80
2022-08-31T17:04:56.541Z,0.70
2022-08-31T17:07:24.776Z,1.10
2022-08-31T17:09:56.941Z,0.90
2022-08-31T17:12:26.092Z,0.80
2022-08-31T17:14:53.245Z,0.90
2022-08-31T17:17:23.243Z,0.80
2022-08-31T17:19:52.104Z,0.80
2022-08-31T17:22:25.562Z,0.80
2022-08-31T17:24:57.592Z,0.60
2022-08-31T17:27:26.915Z,1.10
2022-08-31T17:30:00.907Z,0.80
2022-08-31T17:32:28.637Z,0.87
2022-08-31T17:34:56.979Z,0.90
2022-08-31T17:37:36.274Z,0.83
2022-08-31T17:40:08.195Z,0.80
2022-08-31T17:42:35.739Z,1.23
2022-08-31T17:45:08.516Z,0.90
2022-08-31T17:47:36.112Z,0.73
2022-08-31T17:50:03.633Z,1.10
2022-08-31T17:52:30.858Z,1.20
2022-08-31T17:55:00.337Z,1.00
2022-08-31T17:57:27.986Z,0.90
2022-08-31T17:59:55.278Z,0.80
2022-08-31T18:02:32.710Z,1.00
2022-08-31T18:05:01.318Z,1.00
2022-08-31T18:07:28.445Z,1.00
2022-08-31T18:09:55.293Z,0.90
2022-08-31T18:12:22.877Z,1.07
2022-08-31T18:14:50.228Z,0.90
2022-08-31T18:17:18.317Z,1.13
2022-08-31T18:19:45.586Z,1.27
2022-08-31T18:22:15.641Z,0.90
2022-08-31T18:24:43.590Z,0.80
2022-08-31T18:27:15.225Z,0.90
2022-08-31T18:29:44.158Z,0.90
2022-08-31T18:32:11.887Z,0.70
2022-08-31T18:34:44.890Z,0.80
2022-08-31T18:37:13.213Z,0.90
2022-08-31T18:39:59.544Z,0.80
2022-08-31T18:42:45.996Z,0.70
2022-08-31T18:45:15.541Z,1.50
2022-08-31T18:48:01.558Z,1.00
2022-08-31T18:50:36.353Z,0.80
2022-08-31T18:53:08.355Z,0.63
2022-08-31T18:55:40.862Z,0.80
2022-08-31T18:58:07.937Z,0.77
2022-08-31T19:00:35.096Z,0.80
2022-08-31T19:03:02.816Z,0.80
2022-08-31T19:05:31.578Z,0.60
2022-08-31T19:08:01.914Z,1.10
2022-08-31T19:10:28.869Z,0.70
2022-08-31T19:12:56.104Z,0.80
2022-08-31T19:15:25.496Z,0.80
2022-08-31T19:18:02.758Z,1.20
2022-08-31T19:20:30.427Z,1.00
2022-08-31T19:22:57.404Z,0.90
2022-08-31T19:25:24.586Z,0.70
2022-08-31T19:27:52.059Z,1.03
2022-08-31T19:30:25.825Z,2.20
2022-08-31T19:32:56.188Z,1.70
2022-08-31T19:35:25.863Z,1.20
2022-08-31T19:37:53.937Z,0.80
2022-08-31T19:40:21.355Z,0.70
2022-08-31T19:45:45.333Z,0.73
2022-08-31T19:48:13.043Z,0.93
2022-08-31T19:50:42.452Z,1.10
2022-08-31T19:53:11.784Z,0.80
2022-08-31T19:55:50.030Z,0.80
2022-08-31T19:58:19.319Z,0.87
2022-08-31T20:00:47.326Z,1.20
2022-08-31T20:03:16.151Z,0.90
2022-08-31T20:05:43.598Z,1.00
2022-08-31T20:08:12.432Z,1.20
2022-08-31T20:10:41.010Z,1.00
2022-08-31T20:13:10.001Z,0.93
2022-08-31T20:15:45.022Z,1.20
2022-08-31T20:18:12.826Z,1.00
2022-08-31T20:20:45.693Z,0.90
2022-08-31T20:23:16.773Z,1.20
2022-08-31T20:25:46.176Z,1.10
2022-08-31T20:28:13.954Z,1.20
2022-08-31T20:30:43.016Z,1.20
2022-08-31T20:33:11.312Z,1.03
2022-08-31T20:35:47.765Z,1.10
2022-08-31T20:38:19.105Z,1.20
2022-08-31T20:40:52.337Z,1.10
2022-08-31T20:43:21.217Z,1.40
2022-08-31T20:45:48.854Z,2.57
2022-08-31T20:48:34.390Z,1.60
2022-08-31T20:51:16.390Z,1.23
2022-08-31T20:53:44.501Z,1.20
2022-08-31T20:56:17.043Z,1.00
2022-08-31T20:58:45.410Z,2.60
2022-08-31T21:01:14.189Z,1.17
2022-08-31T21:03:41.775Z,1.50
2022-08-31T21:06:11.631Z,1.10
2022-08-31T21:08:40.977Z,1.00
2022-08-31T21:11:16.525Z,1.23
2022-08-31T21:13:44.611Z,1.40
2022-08-31T21:16:11.762Z,1.00
2022-08-31T21:18:40.433Z,1.13
2022-08-31T21:21:15.321Z,0.90
2022-08-31T21:23:43.745Z,0.90
2022-08-31T21:26:26.013Z,0.80
2022-08-31T21:28:55.215Z,0.97
2022-08-31T21:31:28.928Z,1.20
2022-08-31T21:33:59.398Z,1.60
2022-08-31T21:36:27.564Z,0.80
2022-08-31T21:38:56.654Z,1.80
2022-08-31T21:41:26.973Z,1.00
2022-08-31T21:43:55.816Z,0.90
2022-08-31T21:46:25.374Z,0.97
2022-08-31T21:48:54.835Z,0.80
2022-08-31T21:51:36.590Z,1.20
2022-08-31T21:54:08.742Z,0.80
2022-08-31T21:56:47.731Z,1.30
2022-08-31T21:59:16.627Z,0.90
2022-08-31T22:01:45.131Z,0.90
2022-08-31T22:04:14.189Z,1.00
2022-08-31T22:06:43.138Z,0.90
2022-08-31T22:09:14.922Z,1.10
2022-08-31T22:11:45.987Z,0.90
2022-08-31T22:14:16.442Z,0.90
2022-08-31T22:16:46.595Z,1.30
2022-08-31T22:19:15.698Z,1.33
2022-08-31T22:21:46.229Z,1.00
2022-08-31T22:24:27.332Z,0.90
2022-08-31T22:26:57.032Z,0.90
2022-08-31T22:29:26.463Z,0.80
2022-08-31T22:31:57.710Z,0.80
2022-08-31T22:34:25.480Z,1.10
2022-08-31T22:36:53.959Z,1.10
2022-08-31T22:39:25.181Z,1.00
2022-08-31T22:41:53.103Z,0.97
2022-08-31T22:44:24.971Z,1.00
2022-08-31T22:46:53.429Z,1.00
2022-08-31T22:49:20.443Z,1.10
2022-08-31T22:51:48.451Z,1.10
2022-08-31T22:54:18.363Z,1.03
2022-08-31T22:56:45.607Z,0.90
2022-08-31T22:59:16.393Z,1.50
2022-08-31T23:01:49.883Z,1.13
2022-08-31T23:04:20.088Z,1.00
2022-08-31T23:06:49.693Z,1.10
2022-08-31T23:09:21.068Z,0.90
2022-08-31T23:11:51.510Z,1.00
2022-08-31T23:14:21.158Z,1.00
2022-08-31T23:17:03.443Z,1.00
2022-08-31T23:19:36.978Z,0.87
2022-08-31T23:22:09.391Z,1.00
2022-08-31T23:24:43.928Z,1.00
2022-08-31T23:27:12.774Z,0.80
2022-08-31T23:29:45.729Z,0.90
2022-08-31T23:32:14.023Z,1.00
2022-08-31T23:34:41.789Z,0.90
2022-08-31T23:37:10.371Z,0.93
2022-08-31T23:39:40.629Z,1.10
2022-08-31T23:42:12.146Z,1.03
2022-08-31T23:44:43.306Z,1.10
2022-08-31T23:47:13.751Z,1.00
2022-08-31T23:49:42.453Z,1.00
2022-08-31T23:52:12.102Z,0.87
2022-08-31T23:54:39.495Z,1.03
2022-08-31T23:57:12.643Z,0.90
